sensor_id;sensor_type;location;lat;lon;timestamp;pressure;altitude;pressure_sealevel;temperature;humidity
23574;BME280;11965;53.640;10.050;2023-04-15T00:01:09;100825.03;;;6.93;100.00
23574;BME280;11965;53.640;10.050;2023-04-15T00:03:36;100817.78;;;6.92;100.00
23574;BME280;11965;53.640;10.050;2023-04-15T00:06:03;100821.94;;;6.88;100.00
23574;BME280;11965;53.640;10.050;2023-04-15T00:08:30;100819.00;;;6.90;100.00
23574;BME280;11965;53.640;10.050;2023-04-15T00:10:57;100820.38;;;6.77;100.00
23574;BME280;11965;53.640;10.050;2023-04-15T00:13:28;100814.53;;;6.80;100.00
23574;BME280;11965;53.640;10.050;2023-04-15T00:15:55;100808.84;;;6.98;100.00
23574;BME280;11965;53.640;10.050;2023-04-15T00:18:22;100803.84;;;7.02;100.00
23574;BME280;11965;53.640;10.050;2023-04-15T00:20:50;100799.72;;;6.90;100.00
23574;BME280;11965;53.640;10.050;2023-04-15T00:23:17;100806.06;;;6.90;100.00
23574;BME280;11965;53.640;10.050;2023-04-15T00:25:43;100801.25;;;6.76;100.00
23574;BME280;11965;53.640;10.050;2023-04-15T00:28:10;100805.06;;;6.83;100.00
23574;BME280;11965;53.640;10.050;2023-04-15T00:30:39;100804.38;;;6.81;100.00
23574;BME280;11965;53.640;10.050;2023-04-15T00:33:06;100800.56;;;6.82;100.00
23574;BME280;11965;53.640;10.050;2023-04-15T00:35:33;100803.31;;;6.82;100.00
23574;BME280;11965;53.640;10.050;2023-04-15T00:38:02;100799.91;;;6.80;100.00
23574;BME280;11965;53.640;10.050;2023-04-15T00:40:29;100802.66;;;6.80;100.00
23574;BME280;11965;53.640;10.050;2023-04-15T00:42:56;100805.41;;;6.80;100.00
23574;BME280;11965;53.640;10.050;2023-04-15T00:45:23;100798.84;;;6.89;100.00
23574;BME280;11965;53.640;10.050;2023-04-15T00:47:52;100803.88;;;6.94;100.00
23574;BME280;11965;53.640;10.050;2023-04-15T00:50:19;100799.22;;;6.86;100.00
23574;BME280;11965;53.640;10.050;2023-04-15T00:52:47;100800.75;;;6.80;100.00
23574;BME280;11965;53.640;10.050;2023-04-15T00:55:14;100805.72;;;6.77;100.00
23574;BME280;11965;53.640;10.050;2023-04-15T00:57:41;100801.97;;;6.86;100.00
23574;BME280;11965;53.640;10.050;2023-04-15T01:00:09;100801.75;;;6.79;100.00
23574;BME280;11965;53.640;10.050;2023-04-15T01:02:37;100805.41;;;6.80;100.00
23574;BME280;11965;53.640;10.050;2023-04-15T01:05:05;100803.84;;;6.77;100.00
23574;BME280;11965;53.640;10.050;2023-04-15T01:07:33;100802.81;;;6.78;100.00
23574;BME280;11965;53.640;10.050;2023-04-15T01:10:01;100797.66;;;6.75;100.00
23574;BME280;11965;53.640;10.050;2023-04-15T01:12:31;100802.31;;;6.83;100.00
23574;BME280;11965;53.640;10.050;2023-04-15T01:14:59;100797.66;;;6.75;100.00
23574;BME280;11965;53.640;10.050;2023-04-15T01:17:26;100800.22;;;6.77;100.00
23574;BME280;11965;53.640;10.050;2023-04-15T01:19:55;100788.88;;;6.72;100.00
23574;BME280;11965;53.640;10.050;2023-04-15T01:22:25;100789.19;;;6.77;100.00
23574;BME280;11965;53.640;10.050;2023-04-15T01:24:59;100782.31;;;6.81;100.00
23574;BME280;11965;53.640;10.050;2023-04-15T01:27:32;100790.75;;;6.88;100.00
23574;BME280;11965;53.640;10.050;2023-04-15T01:30:00;100789.72;;;6.80;100.00
23574;BME280;11965;53.640;10.050;2023-04-15T01:32:30;100786.44;;;6.77;100.00
23574;BME280;11965;53.640;10.050;2023-04-15T01:34:57;100789.72;;;6.72;100.00
23574;BME280;11965;53.640;10.050;2023-04-15T01:37:24;100775.25;;;6.70;100.00
23574;BME280;11965;53.640;10.050;2023-04-15T01:39:52;100777.88;;;6.80;100.00
23574;BME280;11965;53.640;10.050;2023-04-15T01:42:20;100773.56;;;6.77;100.00
23574;BME280;11965;53.640;10.050;2023-04-15T01:44:49;100767.16;;;6.77;100.00
23574;BME280;11965;53.640;10.050;2023-04-15T01:47:16;100765.78;;;6.73;100.00
23574;BME280;11965;53.640;10.050;2023-04-15T01:49:43;100765.78;;;6.73;100.00
23574;BME280;11965;53.640;10.050;2023-04-15T01:52:10;100763.91;;;6.73;100.00
23574;BME280;11965;53.640;10.050;2023-04-15T01:54:39;100763.03;;;6.81;100.00
23574;BME280;11965;53.640;10.050;2023-04-15T01:57:06;100750.31;;;6.88;100.00
23574;BME280;11965;53.640;10.050;2023-04-15T01:59:33;100753.56;;;7.00;100.00
23574;BME280;11965;53.640;10.050;2023-04-15T02:02:02;100748.91;;;6.92;100.00
23574;BME280;11965;53.640;10.050;2023-04-15T02:04:29;100749.41;;;6.88;100.00
23574;BME280;11965;53.640;10.050;2023-04-15T02:06:58;100748.06;;;6.92;100.00
23574;BME280;11965;53.640;10.050;2023-04-15T02:09:26;100760.28;;;6.97;100.00
23574;BME280;11965;53.640;10.050;2023-04-15T02:11:52;100753.56;;;7.00;100.00
23574;BME280;11965;53.640;10.050;2023-04-15T02:14:20;100749.25;;;6.89;100.00
23574;BME280;11965;53.640;10.050;2023-04-15T02:16:46;100746.34;;;6.99;100.00
23574;BME280;11965;53.640;10.050;2023-04-15T02:19:16;100746.16;;;6.92;100.00
23574;BME280;11965;53.640;10.050;2023-04-15T02:21:43;100747.88;;;7.01;100.00
23574;BME280;11965;53.640;10.050;2023-04-15T02:24:10;100744.59;;;6.98;100.00
23574;BME280;11965;53.640;10.050;2023-04-15T02:26:40;100745.44;;;7.06;100.00
23574;BME280;11965;53.640;10.050;2023-04-15T02:29:07;100743.22;;;7.10;100.00
23574;BME280;11965;53.640;10.050;2023-04-15T02:31:33;100746.13;;;7.08;100.00
23574;BME280;11965;53.640;10.050;2023-04-15T02:34:04;100744.75;;;7.13;100.00
23574;BME280;11965;53.640;10.050;2023-04-15T02:36:33;100740.63;;;7.00;100.00
23574;BME280;11965;53.640;10.050;2023-04-15T02:39:00;100750.09;;;7.14;100.00
23574;BME280;11965;53.640;10.050;2023-04-15T02:41:28;100749.94;;;6.99;100.00
23574;BME280;11965;53.640;10.050;2023-04-15T02:43:55;100755.59;;;7.06;100.00
23574;BME280;11965;53.640;10.050;2023-04-15T02:46:22;100752.34;;;7.02;100.00
23574;BME280;11965;53.640;10.050;2023-04-15T02:48:49;100757.53;;;6.97;100.00
23574;BME280;11965;53.640;10.050;2023-04-15T02:51:19;100750.47;;;6.95;100.00
23574;BME280;11965;53.640;10.050;2023-04-15T02:53:49;100751.66;;;7.08;100.00
23574;BME280;11965;53.640;10.050;2023-04-15T02:56:16;100750.44;;;7.11;100.00
23574;BME280;11965;53.640;10.050;2023-04-15T02:58:44;100747.88;;;7.10;100.00
23574;BME280;11965;53.640;10.050;2023-04-15T03:01:11;100753.03;;;7.13;100.00
23574;BME280;11965;53.640;10.050;2023-04-15T03:03:39;100749.22;;;7.14;100.00
23574;BME280;11965;53.640;10.050;2023-04-15T03:06:06;100746.97;;;7.17;100.00
23574;BME280;11965;53.640;10.050;2023-04-15T03:08:34;100748.19;;;7.06;100.00
23574;BME280;11965;53.640;10.050;2023-04-15T03:11:02;100749.09;;;7.07;100.00
23574;BME280;11965;53.640;10.050;2023-04-15T03:13:30;100749.09;;;6.99;100.00
23574;BME280;11965;53.640;10.050;2023-04-15T03:16:01;100748.22;;;7.15;100.00
23574;BME280;11965;53.640;10.050;2023-04-15T03:18:29;100749.59;;;7.11;100.00
23574;BME280;11965;53.640;10.050;2023-04-15T03:21:00;100747.88;;;7.18;100.00
23574;BME280;11965;53.640;10.050;2023-04-15T03:23:29;100752.31;;;7.19;100.00
23574;BME280;11965;53.640;10.050;2023-04-15T03:25:56;100753.06;;;7.04;100.00
23574;BME280;11965;53.640;10.050;2023-04-15T03:28:27;100743.03;;;7.12;100.00
23574;BME280;11965;53.640;10.050;2023-04-15T03:30:55;100740.09;;;7.13;100.00
23574;BME280;11965;53.640;10.050;2023-04-15T03:33:22;100738.38;;;7.20;100.00
23574;BME280;11965;53.640;10.050;2023-04-15T03:35:52;100739.72;;;7.24;100.00
23574;BME280;11965;53.640;10.050;2023-04-15T03:38:19;100742.84;;;7.29;100.00
23574;BME280;11965;53.640;10.050;2023-04-15T03:40:46;100733.84;;;7.36;100.00
23574;BME280;11965;53.640;10.050;2023-04-15T03:43:12;100736.59;;;7.36;100.00
23574;BME280;11965;53.640;10.050;2023-04-15T03:45:41;100734.72;;;7.36;100.00
23574;BME280;11965;53.640;10.050;2023-04-15T03:48:08;100735.75;;;7.35;100.00
23574;BME280;11965;53.640;10.050;2023-04-15T03:50:35;100738.50;;;7.35;100.00
23574;BME280;11965;53.640;10.050;2023-04-15T03:53:01;100741.13;;;7.28;100.00
23574;BME280;11965;53.640;10.050;2023-04-15T03:55:28;100735.97;;;7.25;100.00
23574;BME280;11965;53.640;10.050;2023-04-15T03:57:56;100743.00;;;7.20;100.00
23574;BME280;11965;53.640;10.050;2023-04-15T04:00:23;100748.72;;;7.18;100.00
23574;BME280;11965;53.640;10.050;2023-04-15T04:02:51;100740.59;;;7.17;100.00
23574;BME280;11965;53.640;10.050;2023-04-15T04:05:18;100747.00;;;7.25;100.00
23574;BME280;11965;53.640;10.050;2023-04-15T04:07:45;100743.88;;;7.28;100.00
23574;BME280;11965;53.640;10.050;2023-04-15T04:10:12;100740.53;;;7.41;100.00
23574;BME280;11965;53.640;10.050;2023-04-15T04:12:38;100741.94;;;7.37;100.00
23574;BME280;11965;53.640;10.050;2023-04-15T04:15:06;100727.50;;;7.27;100.00
23574;BME280;11965;53.640;10.050;2023-04-15T04:17:33;100743.19;;;7.26;100.00
23574;BME280;11965;53.640;10.050;2023-04-15T04:20:03;100753.50;;;7.33;100.00
23574;BME280;11965;53.640;10.050;2023-04-15T04:22:30;100752.28;;;7.35;100.00
23574;BME280;11965;53.640;10.050;2023-04-15T04:24:57;100751.25;;;7.28;100.00
23574;BME280;11965;53.640;10.050;2023-04-15T04:27:25;100759.53;;;7.36;100.00
23574;BME280;11965;53.640;10.050;2023-04-15T04:29:51;100748.84;;;7.33;100.00
23574;BME280;11965;53.640;10.050;2023-04-15T04:32:18;100742.97;;;7.44;100.00
23574;BME280;11965;53.640;10.050;2023-04-15T04:34:45;100753.13;;;7.44;100.00
23574;BME280;11965;53.640;10.050;2023-04-15T04:37:14;100761.06;;;7.39;100.00
23574;BME280;11965;53.640;10.050;2023-04-15T04:39:41;100758.00;;;7.34;100.00
23574;BME280;11965;53.640;10.050;2023-04-15T04:42:08;100752.28;;;7.35;100.00
23574;BME280;11965;53.640;10.050;2023-04-15T04:44:35;100757.81;;;7.35;100.00
23574;BME280;11965;53.640;10.050;2023-04-15T04:47:01;100768.13;;;7.41;100.00
23574;BME280;11965;53.640;10.050;2023-04-15T04:49:28;100762.78;;;7.48;100.00
23574;BME280;11965;53.640;10.050;2023-04-15T04:51:56;100752.97;;;7.37;100.00
23574;BME280;11965;53.640;10.050;2023-04-15T04:54:25;100759.88;;;7.33;100.00
23574;BME280;11965;53.640;10.050;2023-04-15T04:56:52;100752.25;;;7.51;100.00
23574;BME280;11965;53.640;10.050;2023-04-15T04:59:19;100748.81;;;7.41;100.00
23574;BME280;11965;53.640;10.050;2023-04-15T05:01:46;100748.44;;;7.61;100.00
23574;BME280;11965;53.640;10.050;2023-04-15T05:04:13;100743.59;;;7.55;100.00
23574;BME280;11965;53.640;10.050;2023-04-15T05:06:39;100741.25;;;7.43;100.00
23574;BME280;11965;53.640;10.050;2023-04-15T05:09:07;100737.97;;;7.48;100.00
23574;BME280;11965;53.640;10.050;2023-04-15T05:11:36;100747.25;;;7.55;100.00
23574;BME280;11965;53.640;10.050;2023-04-15T05:14:03;100750.00;;;7.55;100.00
23574;BME280;11965;53.640;10.050;2023-04-15T05:16:30;100742.03;;;7.68;100.00
23574;BME280;11965;53.640;10.050;2023-04-15T05:18:57;100750.84;;;7.64;100.00
23574;BME280;11965;53.640;10.050;2023-04-15T05:21:24;100752.03;;;7.69;100.00
23574;BME280;11965;53.640;10.050;2023-04-15T05:23:52;100744.47;;;7.63;100.00
23574;BME280;11965;53.640;10.050;2023-04-15T05:26:19;100748.91;;;7.72;100.00
23574;BME280;11965;53.640;10.050;2023-04-15T05:28:48;100753.56;;;7.72;100.00
23574;BME280;11965;53.640;10.050;2023-04-15T05:31:15;100746.50;;;7.69;100.00
23574;BME280;11965;53.640;10.050;2023-04-15T05:33:42;100751.81;;;7.71;100.00
23574;BME280;11965;53.640;10.050;2023-04-15T05:36:09;100759.22;;;7.79;100.00
23574;BME280;11965;53.640;10.050;2023-04-15T05:38:36;100763.19;;;7.76;100.00
23574;BME280;11965;53.640;10.050;2023-04-15T05:41:04;100759.94;;;7.72;100.00
23574;BME280;11965;53.640;10.050;2023-04-15T05:43:31;100760.28;;;7.69;100.00
23574;BME280;11965;53.640;10.050;2023-04-15T05:45:59;100765.13;;;7.67;100.00
23574;BME280;11965;53.640;10.050;2023-04-15T05:48:28;100756.13;;;7.73;100.00
23574;BME280;11965;53.640;10.050;2023-04-15T05:50:57;100758.38;;;7.70;100.00
23574;BME280;11965;53.640;10.050;2023-04-15T05:53:24;100765.44;;;7.72;100.00
23574;BME280;11965;53.640;10.050;2023-04-15T05:55:51;100761.47;;;7.75;100.00
23574;BME280;11965;53.640;10.050;2023-04-15T05:58:18;100758.38;;;7.70;100.00
23574;BME280;11965;53.640;10.050;2023-04-15T06:00:45;100766.97;;;7.83;100.00
23574;BME280;11965;53.640;10.050;2023-04-15T06:03:14;100773.38;;;7.75;100.00
23574;BME280;11965;53.640;10.050;2023-04-15T06:05:41;100774.88;;;7.86;100.00
23574;BME280;11965;53.640;10.050;2023-04-15T06:08:09;100777.66;;;7.78;100.00
23574;BME280;11965;53.640;10.050;2023-04-15T06:10:37;100780.75;;;7.83;100.00
23574;BME280;11965;53.640;10.050;2023-04-15T06:13:04;100783.16;;;7.86;100.00
23574;BME280;11965;53.640;10.050;2023-04-15T06:15:31;100785.22;;;7.84;100.00
23574;BME280;11965;53.640;10.050;2023-04-15T06:17:58;100778.84;;;7.84;100.00
23574;BME280;11965;53.640;10.050;2023-04-15T06:20:26;100787.31;;;7.82;100.00
23574;BME280;11965;53.640;10.050;2023-04-15T06:22:54;100790.06;;;7.90;100.00
23574;BME280;11965;53.640;10.050;2023-04-15T06:25:20;100792.84;;;7.82;100.00
23574;BME280;11965;53.640;10.050;2023-04-15T06:27:47;100801.63;;;7.86;100.00
23574;BME280;11965;53.640;10.050;2023-04-15T06:30:14;100798.97;;;7.92;100.00
23574;BME280;11965;53.640;10.050;2023-04-15T06:32:41;100807.47;;;7.91;100.00
23574;BME280;11965;53.640;10.050;2023-04-15T06:35:08;100806.22;;;8.02;100.00
23574;BME280;11965;53.640;10.050;2023-04-15T06:37:37;100803.75;;;8.15;100.00
23574;BME280;11965;53.640;10.050;2023-04-15T06:40:05;100798.06;;;8.08;100.00
23574;BME280;11965;53.640;10.050;2023-04-15T06:42:35;100802.34;;;8.11;100.00
23574;BME280;11965;53.640;10.050;2023-04-15T06:45:03;100797.16;;;8.16;100.00
23574;BME280;11965;53.640;10.050;2023-04-15T06:47:31;100801.84;;;8.15;100.00
23574;BME280;11965;53.640;10.050;2023-04-15T06:49:58;100807.69;;;8.21;100.00
23574;BME280;11965;53.640;10.050;2023-04-15T06:52:25;100813.03;;;8.14;100.00
23574;BME280;11965;53.640;10.050;2023-04-15T06:54:53;100816.41;;;8.01;100.00
23574;BME280;11965;53.640;10.050;2023-04-15T06:57:20;100815.84;;;8.06;100.00
23574;BME280;11965;53.640;10.050;2023-04-15T06:59:47;100825.34;;;8.11;100.00
23574;BME280;11965;53.640;10.050;2023-04-15T07:02:14;100821.53;;;8.12;100.00
23574;BME280;11965;53.640;10.050;2023-04-15T07:04:41;100827.72;;;8.14;100.00
23574;BME280;11965;53.640;10.050;2023-04-15T07:07:08;100827.56;;;8.08;100.00
23574;BME280;11965;53.640;10.050;2023-04-15T07:09:35;100826.00;;;8.13;100.00
23574;BME280;11965;53.640;10.050;2023-04-15T07:12:03;100813.88;;;8.23;100.00
23574;BME280;11965;53.640;10.050;2023-04-15T07:14:30;100818.19;;;8.25;100.00
23574;BME280;11965;53.640;10.050;2023-04-15T07:16:57;100831.63;;;8.28;100.00
23574;BME280;11965;53.640;10.050;2023-04-15T07:19:24;100824.06;;;8.14;100.00
23574;BME280;11965;53.640;10.050;2023-04-15T07:21:51;100827.16;;;8.19;100.00
23574;BME280;11965;53.640;10.050;2023-04-15T07:24:17;100828.06;;;8.19;100.00
23574;BME280;11965;53.640;10.050;2023-04-15T07:26:45;100828.91;;;8.20;100.00
23574;BME280;11965;53.640;10.050;2023-04-15T07:29:13;100828.13;;;8.34;100.00
23574;BME280;11965;53.640;10.050;2023-04-15T07:31:43;100831.75;;;8.35;100.00
23574;BME280;11965;53.640;10.050;2023-04-15T07:34:10;100824.00;;;8.38;100.00
23574;BME280;11965;53.640;10.050;2023-04-15T07:36:37;100838.47;;;8.40;100.00
23574;BME280;11965;53.640;10.050;2023-04-15T07:39:05;100835.72;;;8.40;100.00
23574;BME280;11965;53.640;10.050;2023-04-15T07:41:32;100835.38;;;8.44;100.00
23574;BME280;11965;53.640;10.050;2023-04-15T07:43:59;100842.09;;;8.49;100.00
23574;BME280;11965;53.640;10.050;2023-04-15T07:46:28;100843.44;;;8.53;100.00
23574;BME280;11965;53.640;10.050;2023-04-15T07:48:55;100849.38;;;8.42;100.00
23574;BME280;11965;53.640;10.050;2023-04-15T07:51:22;100851.91;;;8.52;100.00
23574;BME280;11965;53.640;10.050;2023-04-15T07:53:49;100857.38;;;8.60;100.00
23574;BME280;11965;53.640;10.050;2023-04-15T07:56:16;100850.13;;;8.59;100.00
23574;BME280;11965;53.640;10.050;2023-04-15T07:58:43;100849.91;;;8.69;100.00
23574;BME280;11965;53.640;10.050;2023-04-15T08:01:13;100854.47;;;8.84;100.00
23574;BME280;11965;53.640;10.050;2023-04-15T08:03:41;100853.72;;;8.91;100.00
23574;BME280;11965;53.640;10.050;2023-04-15T08:06:08;100853.25;;;8.87;100.00
23574;BME280;11965;53.640;10.050;2023-04-15T08:08:35;100855.75;;;8.74;100.00
23574;BME280;11965;53.640;10.050;2023-04-15T08:11:02;100863.13;;;8.81;100.00
23574;BME280;11965;53.640;10.050;2023-04-15T08:13:29;100855.38;;;8.77;100.00
23574;BME280;11965;53.640;10.050;2023-04-15T08:16:17;100868.88;;;8.72;100.00
23574;BME280;11965;53.640;10.050;2023-04-15T08:18:47;100868.19;;;8.70;100.00
23574;BME280;11965;53.640;10.050;2023-04-15T08:21:15;100875.47;;;8.94;100.00
23574;BME280;11965;53.640;10.050;2023-04-15T08:23:42;100873.75;;;8.93;100.00
23574;BME280;11965;53.640;10.050;2023-04-15T08:26:10;100862.63;;;9.01;100.00
23574;BME280;11965;53.640;10.050;2023-04-15T08:28:39;100871.28;;;9.21;100.00
23574;BME280;11965;53.640;10.050;2023-04-15T08:31:07;100881.19;;;9.15;100.00
23574;BME280;11965;53.640;10.050;2023-04-15T08:33:34;100874.00;;;9.06;100.00
23574;BME280;11965;53.640;10.050;2023-04-15T08:36:03;100880.31;;;8.92;100.00
23574;BME280;11965;53.640;10.050;2023-04-15T08:38:31;100885.28;;;8.96;100.00
23574;BME280;11965;53.640;10.050;2023-04-15T08:40:59;100880.25;;;9.00;100.00
23574;BME280;11965;53.640;10.050;2023-04-15T08:43:34;100889.75;;;9.05;100.00
23574;BME280;11965;53.640;10.050;2023-04-15T08:46:07;100893.69;;;9.11;100.00
23574;BME280;11965;53.640;10.050;2023-04-15T08:48:37;100887.09;;;9.12;100.00
23574;BME280;11965;53.640;10.050;2023-04-15T08:51:07;100891.88;;;9.18;100.00
23574;BME280;11965;53.640;10.050;2023-04-15T08:53:34;100888.38;;;9.24;100.00
23574;BME280;11965;53.640;10.050;2023-04-15T08:56:06;100887.16;;;9.27;100.00
23574;BME280;11965;53.640;10.050;2023-04-15T08:58:35;100888.50;;;9.31;100.00
23574;BME280;11965;53.640;10.050;2023-04-15T09:01:02;100893.09;;;9.62;100.00
23574;BME280;11965;53.640;10.050;2023-04-15T09:03:29;100891.72;;;9.35;100.00
23574;BME280;11965;53.640;10.050;2023-04-15T09:05:58;100894.50;;;9.58;100.00
23574;BME280;11965;53.640;10.050;2023-04-15T09:08:26;100897.47;;;9.71;100.00
23574;BME280;11965;53.640;10.050;2023-04-15T09:10:53;100898.84;;;9.90;100.00
23574;BME280;11965;53.640;10.050;2023-04-15T09:13:21;100903.53;;;9.89;100.00
23574;BME280;11965;53.640;10.050;2023-04-15T09:15:49;100908.13;;;9.97;100.00
23574;BME280;11965;53.640;10.050;2023-04-15T09:18:26;100905.91;;;9.92;100.00
23574;BME280;11965;53.640;10.050;2023-04-15T09:20:54;100898.88;;;10.05;100.00
23574;BME280;11965;53.640;10.050;2023-04-15T09:23:21;100903.28;;;10.44;100.00
23574;BME280;11965;53.640;10.050;2023-04-15T09:25:49;100901.84;;;10.48;100.00
23574;BME280;11965;53.640;10.050;2023-04-15T09:28:23;100906.63;;;10.54;100.00
23574;BME280;11965;53.640;10.050;2023-04-15T09:30:54;100900.72;;;10.78;100.00
23574;BME280;11965;53.640;10.050;2023-04-15T09:33:21;100906.72;;;10.97;100.00
23574;BME280;11965;53.640;10.050;2023-04-15T09:35:59;100902.97;;;11.04;100.00
23574;BME280;11965;53.640;10.050;2023-04-15T09:38:27;100899.66;;;11.59;100.00
23574;BME280;11965;53.640;10.050;2023-04-15T09:40:55;100904.53;;;11.35;100.00
23574;BME280;11965;53.640;10.050;2023-04-15T09:43:26;100902.81;;;10.91;100.00
23574;BME280;11965;53.640;10.050;2023-04-15T09:46:02;100908.78;;;11.53;100.00
23574;BME280;11965;53.640;10.050;2023-04-15T09:48:29;100910.47;;;11.75;100.00
23574;BME280;11965;53.640;10.050;2023-04-15T09:50:57;100910.63;;;11.45;100.00
23574;BME280;11965;53.640;10.050;2023-04-15T09:53:25;100918.78;;;11.75;100.00
23574;BME280;11965;53.640;10.050;2023-04-15T09:55:54;100907.25;;;12.00;100.00
23574;BME280;11965;53.640;10.050;2023-04-15T09:58:24;100915.13;;;12.24;100.00
23574;BME280;11965;53.640;10.050;2023-04-15T10:00:53;100919.22;;;12.28;100.00
23574;BME280;11965;53.640;10.050;2023-04-15T10:03:24;100919.72;;;12.10;100.00
23574;BME280;11965;53.640;10.050;2023-04-15T10:05:53;100913.34;;;12.16;100.00
23574;BME280;11965;53.640;10.050;2023-04-15T10:08:22;100916.00;;;11.75;100.00
23574;BME280;11965;53.640;10.050;2023-04-15T10:10:50;100914.59;;;12.07;100.00
23574;BME280;11965;53.640;10.050;2023-04-15T10:13:20;100919.28;;;12.07;100.00
23574;BME280;11965;53.640;10.050;2023-04-15T10:15:50;100916.38;;;12.56;100.00
23574;BME280;11965;53.640;10.050;2023-04-15T10:18:19;100918.84;;;12.86;100.00
23574;BME280;11965;53.640;10.050;2023-04-15T10:20:47;100920.16;;;12.97;100.00
23574;BME280;11965;53.640;10.050;2023-04-15T10:23:14;100927.91;;;13.01;100.00
23574;BME280;11965;53.640;10.050;2023-04-15T10:25:42;100927.47;;;13.04;100.00
23574;BME280;11965;53.640;10.050;2023-04-15T10:28:10;100924.50;;;13.13;99.46
23574;BME280;11965;53.640;10.050;2023-04-15T10:30:38;100929.44;;;13.17;100.00
23574;BME280;11965;53.640;10.050;2023-04-15T10:33:08;100927.66;;;12.90;100.00
23574;BME280;11965;53.640;10.050;2023-04-15T10:35:35;100922.09;;;12.90;100.00
23574;BME280;11965;53.640;10.050;2023-04-15T10:38:31;100926.09;;;12.80;100.00
23574;BME280;11965;53.640;10.050;2023-04-15T10:41:12;100921.72;;;13.06;100.00
23574;BME280;11965;53.640;10.050;2023-04-15T10:43:39;100928.59;;;13.17;97.09
23574;BME280;11965;53.640;10.050;2023-04-15T10:46:07;100914.09;;;13.35;95.08
23574;BME280;11965;53.640;10.050;2023-04-15T10:48:34;100916.91;;;13.61;87.12
23574;BME280;11965;53.640;10.050;2023-04-15T10:51:01;100929.97;;;13.47;88.02
23574;BME280;11965;53.640;10.050;2023-04-15T10:53:28;100932.56;;;13.69;86.44
23574;BME280;11965;53.640;10.050;2023-04-15T10:55:57;100927.41;;;13.73;85.71
23574;BME280;11965;53.640;10.050;2023-04-15T10:58:24;100943.72;;;13.76;79.51
23574;BME280;11965;53.640;10.050;2023-04-15T11:00:52;100929.34;;;13.72;81.59
23574;BME280;11965;53.640;10.050;2023-04-15T11:03:37;100928.06;;;13.81;83.00
23574;BME280;11965;53.640;10.050;2023-04-15T11:06:04;100931.69;;;13.75;83.24
23574;BME280;11965;53.640;10.050;2023-04-15T11:08:53;100940.50;;;14.05;80.30
23574;BME280;11965;53.640;10.050;2023-04-15T11:11:20;100938.06;;;14.42;79.04
23574;BME280;11965;53.640;10.050;2023-04-15T11:13:49;100940.88;;;14.29;79.28
23574;BME280;11965;53.640;10.050;2023-04-15T11:16:18;100940.91;;;14.22;83.25
23574;BME280;11965;53.640;10.050;2023-04-15T11:18:54;100949.50;;;13.87;74.27
23574;BME280;11965;53.640;10.050;2023-04-15T11:21:24;100952.50;;;13.92;75.01
23574;BME280;11965;53.640;10.050;2023-04-15T11:23:52;100958.28;;;13.98;78.95
23574;BME280;11965;53.640;10.050;2023-04-15T11:26:25;100955.88;;;13.41;77.32
23574;BME280;11965;53.640;10.050;2023-04-15T11:28:52;100949.22;;;13.36;77.08
23574;BME280;11965;53.640;10.050;2023-04-15T11:31:19;100952.66;;;13.51;78.40
23574;BME280;11965;53.640;10.050;2023-04-15T11:33:55;100961.06;;;13.78;76.56
23574;BME280;11965;53.640;10.050;2023-04-15T11:36:27;100962.38;;;13.95;75.54
23574;BME280;11965;53.640;10.050;2023-04-15T11:38:56;100967.09;;;13.95;79.97
23574;BME280;11965;53.640;10.050;2023-04-15T11:41:23;100977.56;;;14.26;74.72
23574;BME280;11965;53.640;10.050;2023-04-15T11:43:51;100984.41;;;14.43;73.56
23574;BME280;11965;53.640;10.050;2023-04-15T11:46:18;100978.00;;;14.36;73.68
23574;BME280;11965;53.640;10.050;2023-04-15T11:48:46;100981.63;;;14.36;71.32
23574;BME280;11965;53.640;10.050;2023-04-15T11:51:14;100970.50;;;14.23;71.85
23574;BME280;11965;53.640;10.050;2023-04-15T11:53:43;100994.06;;;14.07;71.88
23574;BME280;11965;53.640;10.050;2023-04-15T11:56:16;100998.31;;;13.50;73.60
23574;BME280;11965;53.640;10.050;2023-04-15T11:58:43;100995.47;;;13.30;76.04
23574;BME280;11965;53.640;10.050;2023-04-15T12:01:11;100994.88;;;13.48;76.50
23574;BME280;11965;53.640;10.050;2023-04-15T12:03:40;100998.56;;;13.68;76.07
23574;BME280;11965;53.640;10.050;2023-04-15T12:06:14;101008.06;;;13.26;78.68
23574;BME280;11965;53.640;10.050;2023-04-15T12:11:36;101015.88;;;13.51;74.38
23574;BME280;11965;53.640;10.050;2023-04-15T12:14:09;101020.69;;;13.22;74.47
23574;BME280;11965;53.640;10.050;2023-04-15T12:16:40;101018.81;;;13.36;75.15
23574;BME280;11965;53.640;10.050;2023-04-15T12:19:10;101021.63;;;13.42;75.50
23574;BME280;11965;53.640;10.050;2023-04-15T12:21:40;101025.00;;;13.31;72.46
23574;BME280;11965;53.640;10.050;2023-04-15T12:24:09;101039.13;;;13.30;73.38
23574;BME280;11965;53.640;10.050;2023-04-15T12:26:42;101038.00;;;13.17;74.10
23574;BME280;11965;53.640;10.050;2023-04-15T12:29:11;101037.81;;;13.25;72.48
23574;BME280;11965;53.640;10.050;2023-04-15T12:31:50;101048.50;;;13.22;74.90
23574;BME280;11965;53.640;10.050;2023-04-15T12:34:17;101039.13;;;13.30;73.00
23574;BME280;11965;53.640;10.050;2023-04-15T12:36:46;101046.47;;;13.44;73.28
23574;BME280;11965;53.640;10.050;2023-04-15T12:39:13;101041.19;;;13.62;72.50
23574;BME280;11965;53.640;10.050;2023-04-15T12:41:40;101058.00;;;13.28;73.30
23574;BME280;11965;53.640;10.050;2023-04-15T12:44:07;101052.56;;;13.19;73.87
23574;BME280;11965;53.640;10.050;2023-04-15T12:46:34;101057.63;;;13.44;71.35